Time;durP1;ratioP1;P1;durP2;ratioP2;P2;SDS_P1;SDS_P2;PMS_P1;PMS_P2;Temp;Humidity;BMP_temperature;BMP_pressure;BME280_temperature;BME280_humidity;BME280_pressure;Samples;Min_cycle;Max_cycle;Signal;HPM_P1;HPM_P2
2023/04/16 00:02:15;;;;;;;24.67;9.88;;;;;;;9.17;100.00;101494.19;6279378;28;20052;-75
2023/04/16 00:05:16;;;;;;;23.42;10.70;;;;;;;9.09;100.00;101491.88;6279149;28;20052;-76
2023/04/16 00:08:18;;;;;;;28.48;10.80;;;;;;;9.07;100.00;101498.06;6278583;28;20349;-76
2023/04/16 00:11:19;;;;;;;21.27;9.93;;;;;;;9.08;100.00;101503.28;6278629;28;20048;-75
2023/04/16 00:14:22;;;;;;;15.85;9.73;;;;;;;9.08;100.00;101502.41;6278642;28;20049;-76
2023/04/16 00:17:23;;;;;;;26.13;11.43;;;;;;;9.07;100.00;101504.16;6278650;28;20056;-76
2023/04/16 00:20:25;;;;;;;20.13;10.43;;;;;;;9.04;100.00;101511.31;6278364;28;20346;-75
2023/04/16 00:23:26;;;;;;;24.83;10.98;;;;;;;9.05;100.00;101507.75;6278530;28;20053;-75
2023/04/16 00:26:28;;;;;;;21.05;9.90;;;;;;;8.96;100.00;101514.19;6278444;28;20060;-76
2023/04/16 00:29:31;;;;;;;26.92;11.10;;;;;;;8.95;100.00;101509.84;6278560;28;20056;-76
2023/04/16 00:32:32;;;;;;;18.73;10.63;;;;;;;8.93;100.00;101519.50;6277974;28;20120;-76
2023/04/16 00:35:34;;;;;;;26.65;11.23;;;;;;;8.83;100.00;101511.13;6278102;28;20048;-76
2023/04/16 00:38:35;;;;;;;23.60;10.32;;;;;;;8.84;100.00;101509.34;6278162;28;20041;-76
2023/04/16 00:41:37;;;;;;;22.77;10.82;;;;;;;8.80;100.00;101507.72;6277831;28;20049;-76
2023/04/16 00:44:40;;;;;;;25.35;10.35;;;;;;;8.83;100.00;101511.13;6278092;28;20350;-75
2023/04/16 00:47:42;;;;;;;21.08;11.35;;;;;;;8.78;100.00;101506.94;6277315;28;20049;-75
2023/04/16 00:50:43;;;;;;;20.40;9.60;;;;;;;8.75;100.00;101512.28;6278134;28;20037;-75
2023/04/16 00:53:46;;;;;;;26.67;11.15;;;;;;;8.75;100.00;101517.50;6277664;28;20048;-75
2023/04/16 00:56:47;;;;;;;21.90;10.75;;;;;;;8.70;100.00;101519.44;6278043;28;20063;-75
2023/04/16 00:59:51;;;;;;;19.08;9.95;;;;;;;8.72;100.00;101521.13;6277716;28;20056;-75
2023/04/16 01:02:53;;;;;;;20.67;10.13;;;;;;;8.71;100.00;101522.00;6277271;28;20441;-76
2023/04/16 01:05:55;;;;;;;22.58;11.50;;;;;;;8.67;100.00;101527.38;6277738;28;20060;-75
2023/04/16 01:08:56;;;;;;;20.02;10.75;;;;;;;8.62;100.00;101530.16;6277602;28;20060;-75
2023/04/16 01:11:58;;;;;;;21.75;10.93;;;;;;;8.60;100.00;101530.22;6277772;28;20119;-75
2023/04/16 01:15:01;;;;;;;16.65;9.32;;;;;;;8.60;100.00;101529.38;6277065;28;20052;-76
2023/04/16 01:18:02;;;;;;;24.17;10.35;;;;;;;8.57;100.00;101538.16;6277279;28;20049;-75
2023/04/16 01:21:05;;;;;;;19.40;9.60;;;;;;;8.58;100.00;101541.63;6277263;28;20045;-75
2023/04/16 01:24:07;;;;;;;25.80;11.27;;;;;;;8.52;100.00;101545.31;6276744;28;20060;-75
2023/04/16 01:27:08;;;;;;;22.67;11.20;;;;;;;8.51;100.00;101550.63;6276935;28;20438;-75
2023/04/16 01:30:10;;;;;;;24.15;11.23;;;;;;;8.48;100.00;101548.94;6277078;28;20349;-75
2023/04/16 01:33:12;;;;;;;24.45;10.77;;;;;;;8.44;100.00;101554.31;6268629;28;20057;-76
2023/04/16 01:36:15;;;;;;;21.60;10.52;;;;;;;8.31;100.00;101553.81;6276806;28;20049;-75
2023/04/16 01:39:18;;;;;;;18.02;9.57;;;;;;;8.29;100.00;101553.00;6276875;28;20247;-75
2023/04/16 01:42:19;;;;;;;24.20;11.23;;;;;;;8.27;100.00;101560.06;6276949;28;20048;-75
2023/04/16 01:45:21;;;;;;;23.60;11.02;;;;;;;8.19;100.00;101567.31;6276687;28;20048;-75
2023/04/16 01:48:22;;;;;;;20.77;10.77;;;;;;;8.18;100.00;101562.97;6276667;28;20471;-76
2023/04/16 01:51:26;;;;;;;19.98;10.38;;;;;;;8.18;100.00;101560.34;6276757;28;20052;-76
2023/04/16 01:54:27;;;;;;;21.15;10.18;;;;;;;8.21;100.00;101570.72;6276342;28;20128;-76
2023/04/16 01:57:28;;;;;;;23.63;9.98;;;;;;;8.21;100.00;101571.56;6276377;28;20064;-76
2023/04/16 02:00:30;;;;;;;22.40;10.15;;;;;;;8.17;100.00;101575.19;6275193;28;20056;-76
2023/04/16 02:03:32;;;;;;;25.60;10.55;;;;;;;8.07;100.00;101573.75;6276181;28;20061;-76
2023/04/16 02:06:34;;;;;;;28.42;10.85;;;;;;;8.01;100.00;101574.78;6276009;28;20056;-76
2023/04/16 02:09:37;;;;;;;23.65;10.27;;;;;;;8.03;100.00;101572.97;6275934;28;20048;-77
2023/04/16 02:12:38;;;;;;;24.83;10.63;;;;;;;8.05;100.00;101576.41;6276048;28;20048;-76
2023/04/16 02:15:39;;;;;;;25.08;10.18;;;;;;;8.03;100.00;101574.75;6276023;28;20036;-75
2023/04/16 02:18:41;;;;;;;22.80;10.93;;;;;;;8.04;100.00;101579.94;6275357;28;20346;-75
2023/04/16 02:21:44;;;;;;;20.88;9.88;;;;;;;8.02;100.00;101573.88;6275993;28;20048;-75
2023/04/16 02:24:45;;;;;;;24.98;10.70;;;;;;;8.07;100.00;101578.97;6275873;28;20053;-76
2023/04/16 02:27:46;;;;;;;20.42;10.75;;;;;;;8.10;100.00;101578.91;6275461;28;20060;-75
2023/04/16 02:30:48;;;;;;;22.75;10.38;;;;;;;8.07;100.00;101584.22;6275727;28;20060;-76
2023/04/16 02:33:49;;;;;;;22.25;11.00;;;;;;;8.02;100.00;101583.50;6280519;28;20049;-75
2023/04/16 02:36:53;;;;;;;20.73;10.02;;;;;;;8.05;100.00;101579.03;6275390;28;20056;-75
2023/04/16 02:39:54;;;;;;;20.35;9.93;;;;;;;8.00;100.00;101583.56;6275562;28;20099;-75
2023/04/16 02:42:55;;;;;;;19.75;9.80;;;;;;;7.98;100.00;101579.25;6274072;28;20049;-75
2023/04/16 02:45:58;;;;;;;24.52;10.70;;;;;;;7.98;100.00;101587.97;6275393;28;20049;-75
2023/04/16 02:48:59;;;;;;;24.30;9.88;;;;;;;7.97;100.00;101583.63;6275157;28;20430;-75
2023/04/16 02:52:02;;;;;;;21.58;10.23;;;;;;;7.89;100.00;101593.47;6275483;28;20047;-75
2023/04/16 02:55:04;;;;;;;19.35;11.43;;;;;;;7.96;100.00;101602.00;6275345;28;20120;-75
2023/04/16 02:58:05;;;;;;;23.48;10.43;;;;;;;8.00;100.00;101603.63;6274878;28;20437;-76
2023/04/16 03:01:06;;;;;;;24.77;11.32;;;;;;;7.91;100.00;101599.53;6275109;28;20049;-75
2023/04/16 03:04:08;;;;;;;21.45;10.52;;;;;;;7.95;100.00;101605.50;6274719;28;20269;-75
2023/04/16 03:07:11;;;;;;;21.77;10.98;;;;;;;7.89;100.00;101602.16;6274731;28;20045;-75
2023/04/16 03:10:13;;;;;;;23.63;12.43;;;;;;;7.88;100.00;101608.31;6266994;28;20053;-75
2023/04/16 03:13:15;;;;;;;24.15;12.50;;;;;;;7.87;100.00;101603.97;6274921;28;20098;-75
2023/04/16 03:16:16;;;;;;;27.23;12.43;;;;;;;7.83;100.00;101599.72;6274870;28;20134;-76
2023/04/16 03:19:17;;;;;;;26.20;12.45;;;;;;;7.92;100.00;101603.00;6274934;28;20060;-76
2023/04/16 03:22:20;;;;;;;31.88;12.45;;;;;;;7.91;100.00;101603.91;6274731;28;20087;-76
2023/04/16 03:25:21;;;;;;;28.23;12.68;;;;;;;7.93;100.00;101608.19;6274756;28;20353;-75
2023/04/16 03:28:23;;;;;;;30.90;12.90;;;;;;;7.94;100.00;101607.28;6274610;28;20471;-75
2023/04/16 03:31:24;;;;;;;27.92;13.70;;;;;;;7.94;100.00;101602.03;6274185;28;20323;-75
2023/04/16 03:34:26;;;;;;;30.42;12.05;;;;;;;7.93;100.00;101620.41;6258459;28;20041;-75
2023/04/16 03:37:29;;;;;;;36.08;13.32;;;;;;;7.95;100.00;101616.84;6252763;28;20087;-75
2023/04/16 03:40:30;;;;;;;33.00;12.55;;;;;;;7.99;100.00;101618.47;6255542;28;20059;-75
2023/04/16 03:43:32;;;;;;;31.85;13.00;;;;;;;7.97;100.00;101624.66;6252951;28;20585;-75
2023/04/16 03:46:33;;;;;;;26.13;12.02;;;;;;;7.91;100.00;101623.09;6253669;28;20045;-76
2023/04/16 03:49:35;;;;;;;30.05;12.93;;;;;;;7.89;100.00;101624.88;6254830;28;20052;-75
2023/04/16 03:52:37;;;;;;;23.65;11.68;;;;;;;7.88;100.00;101631.84;6256476;28;20557;-75
2023/04/16 03:55:39;;;;;;;28.73;12.75;;;;;;;7.88;100.00;101634.47;6256363;28;20045;-75
2023/04/16 03:58:40;;;;;;;32.30;13.85;;;;;;;7.87;100.00;101639.75;6253751;28;20141;-76
2023/04/16 04:01:42;;;;;;;29.23;12.57;;;;;;;7.82;100.00;101639.88;6254196;28;20061;-76
2023/04/16 04:04:43;;;;;;;28.63;13.40;;;;;;;7.88;100.00;101649.31;6254345;28;20048;-76
2023/04/16 04:07:46;;;;;;;27.67;12.75;;;;;;;7.88;100.00;101639.72;6254868;28;20569;-75
2023/04/16 04:10:47;;;;;;;28.70;13.32;;;;;;;7.88;100.00;101633.63;6253727;28;20049;-75
2023/04/16 04:13:48;;;;;;;26.20;12.10;;;;;;;7.89;100.00;101632.72;6255726;28;20059;-76
2023/04/16 04:16:50;;;;;;;24.98;12.48;;;;;;;7.83;100.00;101635.50;6252742;28;20060;-76
2023/04/16 04:19:52;;;;;;;22.55;12.13;;;;;;;7.85;100.00;101639.78;6254715;28;20573;-75
2023/04/16 04:22:55;;;;;;;35.15;13.95;;;;;;;7.87;100.00;101640.63;6254633;28;20048;-76
2023/04/16 04:25:56;;;;;;;28.52;12.25;;;;;;;7.84;100.00;101645.06;6261860;28;20053;-75
2023/04/16 04:28:58;;;;;;;29.38;12.55;;;;;;;7.73;100.00;101642.75;6258035;28;20044;-75
2023/04/16 04:31:59;;;;;;;34.08;12.60;;;;;;;7.76;100.00;101647.88;6259843;28;20049;-75
2023/04/16 04:35:02;;;;;;;27.98;10.98;;;;;;;7.77;100.00;101649.63;6277315;28;20049;-75
2023/04/16 04:38:05;;;;;;;24.73;12.45;;;;;;;7.76;100.00;101655.75;6278096;28;20072;-75
2023/04/16 04:41:06;;;;;;;26.27;12.35;;;;;;;7.75;100.00;101656.66;6278199;28;20080;-75
2023/04/16 04:44:08;;;;;;;23.98;11.45;;;;;;;7.75;100.00;101661.03;6278207;28;20056;-75
2023/04/16 04:47:09;;;;;;;18.95;11.23;;;;;;;7.75;100.00;101663.63;6278039;28;20060;-75
2023/04/16 04:50:11;;;;;;;25.15;10.77;;;;;;;7.76;100.00;101668.81;6269877;28;20045;-75
2023/04/16 04:53:13;;;;;;;20.88;11.35;;;;;;;7.73;100.00;101668.94;6278084;28;20055;-75
2023/04/16 04:56:15;;;;;;;21.60;10.60;;;;;;;7.69;100.00;101679.50;6277547;28;20056;-75
2023/04/16 04:59:16;;;;;;;21.00;10.18;;;;;;;7.69;100.00;101677.75;6277698;28;20041;-75
2023/04/16 05:02:17;;;;;;;24.17;11.07;;;;;;;7.67;100.00;101682.16;6277791;28;20052;-75
2023/04/16 05:05:19;;;;;;;60.90;20.85;;;;;;;7.60;100.00;101680.59;6278054;28;20068;-75
2023/04/16 05:08:22;;;;;;;20.40;11.68;;;;;;;7.67;100.00;101695.22;6277510;28;20053;-75
2023/04/16 05:11:23;;;;;;;27.55;11.93;;;;;;;7.66;100.00;101690.91;6277382;28;20045;-75
2023/04/16 05:14:25;;;;;;;26.70;11.32;;;;;;;7.76;100.00;101697.59;6277667;28;20049;-75
2023/04/16 05:17:26;;;;;;;25.75;12.32;;;;;;;7.72;100.00;101701.22;6277123;28;20049;-75
2023/04/16 05:20:28;;;;;;;24.25;12.15;;;;;;;7.82;100.00;101704.47;6277440;28;20049;-75
2023/04/16 05:23:30;;;;;;;25.20;11.55;;;;;;;7.78;100.00;101711.53;6277192;28;20041;-77
2023/04/16 05:26:32;;;;;;;31.02;13.90;;;;;;;7.75;100.00;101714.22;6277186;28;20056;-75
2023/04/16 05:29:33;;;;;;;27.05;12.35;;;;;;;7.75;100.00;101708.13;6276866;28;20055;-75
2023/04/16 05:32:34;;;;;;;25.98;12.10;;;;;;;7.68;100.00;101717.91;6277164;28;20037;-75
2023/04/16 05:35:36;;;;;;;20.70;11.48;;;;;;;7.69;100.00;101716.13;6276911;28;20048;-75
2023/04/16 05:38:39;;;;;;;25.38;11.40;;;;;;;7.73;100.00;101716.03;6277153;28;20043;-75
2023/04/16 05:41:40;;;;;;;24.70;11.63;;;;;;;7.71;100.00;101722.19;6277002;28;20484;-75
2023/04/16 05:44:41;;;;;;;23.85;11.75;;;;;;;7.69;100.00;101724.84;6276900;28;20324;-75
2023/04/16 05:47:43;;;;;;;25.58;12.02;;;;;;;7.59;100.00;101728.59;6276822;28;20048;-75
2023/04/16 05:50:45;;;;;;;32.38;12.20;;;;;;;7.57;100.00;101728.63;6276560;28;20319;-75
2023/04/16 05:53:47;;;;;;;36.58;13.73;;;;;;;7.52;100.00;101727.88;6276502;28;20068;-75
2023/04/16 05:56:49;;;;;;;31.52;11.35;;;;;;;7.58;100.00;101732.09;6276312;28;20056;-75
2023/04/16 05:59:50;;;;;;;24.48;11.38;;;;;;;7.60;100.00;101735.53;6276253;28;20057;-75
2023/04/16 06:02:51;;;;;;;28.77;12.57;;;;;;;7.66;100.00;101738.00;6276301;28;20433;-75
2023/04/16 06:05:53;;;;;;;29.58;12.05;;;;;;;7.71;100.00;101736.13;6276819;28;20049;-75
2023/04/16 06:08:56;;;;;;;26.20;11.57;;;;;;;7.72;100.00;101735.25;6268314;28;20461;-75
2023/04/16 06:11:57;;;;;;;26.10;11.93;;;;;;;7.78;100.00;101744.69;6265978;28;20049;-75
2023/04/16 06:15:00;;;;;;;25.30;12.00;;;;;;;7.83;100.00;101742.81;6266915;28;20087;-75
2023/04/16 06:18:01;;;;;;;27.27;11.93;;;;;;;7.88;100.00;101747.00;6265767;28;20045;-77
2023/04/16 06:21:03;;;;;;;23.55;11.73;;;;;;;7.89;100.00;101747.88;6260280;28;20461;-76
2023/04/16 06:24:06;;;;;;;26.08;12.15;;;;;;;7.89;100.00;101746.09;6268529;28;20052;-76
2023/04/16 06:27:08;;;;;;;22.27;11.00;;;;;;;7.98;100.00;101752.00;6272959;28;20049;-76
2023/04/16 06:30:13;;;;;;;30.92;12.23;;;;;;;7.98;100.00;101752.84;6275695;28;20049;-76
2023/04/16 06:33:15;;;;;;;25.60;11.60;;;;;;;8.08;100.00;101756.09;6275425;28;20052;-76
2023/04/16 06:36:16;;;;;;;26.40;11.80;;;;;;;8.08;100.00;101763.94;6275354;28;20468;-76
2023/04/16 06:39:20;;;;;;;28.10;11.68;;;;;;;8.09;100.00;101770.91;6275527;28;20345;-76
2023/04/16 06:42:21;;;;;;;22.83;11.38;;;;;;;8.11;100.00;101776.97;6275175;28;20445;-75
2023/04/16 06:45:23;;;;;;;26.50;11.25;;;;;;;8.18;100.00;101781.16;6274917;28;20057;-75
2023/04/16 06:48:24;;;;;;;26.25;10.88;;;;;;;8.19;100.00;101776.75;6275110;28;20053;-75
2023/04/16 06:51:26;;;;;;;25.20;11.48;;;;;;;8.12;100.00;101770.81;6274676;28;20052;-76
2023/04/16 06:54:29;;;;;;;24.38;11.63;;;;;;;8.13;100.00;101772.56;6274600;28;20048;-76
2023/04/16 06:57:31;;;;;;;22.08;10.85;;;;;;;8.12;100.00;101778.66;6274637;28;20060;-75
2023/04/16 07:00:32;;;;;;;25.23;11.25;;;;;;;8.08;100.00;101777.03;6274503;28;20345;-76
2023/04/16 07:03:34;;;;;;;22.40;11.13;;;;;;;8.09;100.00;101776.16;6274506;28;20448;-75
2023/04/16 07:06:35;;;;;;;22.33;11.50;;;;;;;8.08;100.00;101783.16;6274590;28;20045;-75
2023/04/16 07:09:38;;;;;;;22.77;11.30;;;;;;;8.05;100.00;101775.38;6274369;28;20492;-75
2023/04/16 07:12:39;;;;;;;21.38;10.85;;;;;;;8.10;100.00;101781.34;6274604;28;20045;-75
2023/04/16 07:15:41;;;;;;;23.98;10.50;;;;;;;8.18;100.00;101785.53;6271793;28;20441;-76
2023/04/16 07:18:42;;;;;;;24.10;10.25;;;;;;;8.18;100.00;101791.63;6273698;28;20422;-75
2023/04/16 07:21:44;;;;;;;21.58;10.93;;;;;;;8.17;100.00;101792.50;6274496;28;20105;-77
2023/04/16 07:24:47;;;;;;;28.15;10.43;;;;;;;8.17;100.00;101795.13;6273638;28;20063;-76
2023/04/16 07:27:49;;;;;;;27.23;11.13;;;;;;;8.18;100.00;101799.47;6274215;28;20053;-76
2023/04/16 07:30:50;;;;;;;23.48;11.18;;;;;;;8.23;100.00;101799.34;6274257;28;20053;-76
2023/04/16 07:33:52;;;;;;;23.88;10.75;;;;;;;8.24;100.00;101796.69;6274246;28;20053;-77
2023/04/16 07:36:53;;;;;;;20.23;10.00;;;;;;;8.26;100.00;101797.50;6274150;28;20049;-75
2023/04/16 07:39:56;;;;;;;21.20;9.98;;;;;;;8.24;100.00;101801.91;6274741;28;20045;-75
2023/04/16 07:42:57;;;;;;;18.25;10.23;;;;;;;8.29;100.00;101807.88;6274358;28;20076;-76
2023/04/16 07:45:59;;;;;;;20.90;9.38;;;;;;;8.27;100.00;101808.84;6274733;28;20069;-76
2023/04/16 07:49:00;;;;;;;24.17;10.75;;;;;;;8.30;100.00;101812.22;6265933;28;20053;-76
2023/04/16 07:52:02;;;;;;;21.83;10.35;;;;;;;8.38;100.00;101818.16;6270136;28;20093;-77
2023/04/16 07:55:05;;;;;;;27.52;10.98;;;;;;;8.34;100.00;101811.25;6272549;28;20338;-76
2023/04/16 07:58:08;;;;;;;22.98;10.40;;;;;;;8.34;100.00;101821.72;6275109;28;20349;-76
2023/04/16 08:01:09;;;;;;;27.88;11.57;;;;;;;8.40;100.00;101820.72;6279400;28;20053;-77
2023/04/16 08:04:11;;;;;;;26.17;10.32;;;;;;;8.36;100.00;101824.31;6270266;28;20060;-77
2023/04/16 08:07:12;;;;;;;39.20;13.52;;;;;;;8.35;100.00;101826.03;6277708;28;20051;-76
2023/04/16 08:10:15;;;;;;;23.40;10.68;;;;;;;8.39;100.00;101829.47;6278727;28;20048;-77
2023/04/16 08:13:16;;;;;;;20.00;10.25;;;;;;;8.39;100.00;101829.47;6276356;28;20339;-77
2023/04/16 08:16:18;;;;;;;23.88;10.15;;;;;;;8.43;100.00;101832.88;6278130;28;20056;-77
2023/04/16 08:19:19;;;;;;;22.83;9.23;;;;;;;8.43;100.00;101835.50;6278654;28;20055;-77
2023/04/16 08:22:21;;;;;;;20.40;9.18;;;;;;;8.42;100.00;101844.28;6278792;28;20064;-78
2023/04/16 08:25:24;;;;;;;22.15;10.05;;;;;;;8.43;100.00;101841.59;6273653;28;20048;-77
2023/04/16 08:28:25;;;;;;;23.73;9.77;;;;;;;8.42;100.00;101845.13;6264244;28;20125;-77
2023/04/16 08:31:27;;;;;;;19.63;8.02;;;;;;;8.43;100.00;101849.47;6273884;28;20048;-77
2023/04/16 08:34:28;;;;;;;24.08;10.95;;;;;;;8.45;100.00;101847.69;6274204;28;20052;-77
2023/04/16 08:37:30;;;;;;;21.75;10.45;;;;;;;8.49;100.00;101853.66;6273829;28;20049;-77
2023/04/16 08:40:37;;;;;;;18.00;8.93;;;;;;;8.51;100.00;101855.34;6267386;28;20056;-77
2023/04/16 08:43:43;;;;;;;21.20;10.15;;;;;;;8.60;100.00;101855.09;6276347;28;20060;-78
2023/04/16 08:46:46;;;;;;;20.05;9.82;;;;;;;8.69;100.00;101858.38;6278200;28;20048;-77
2023/04/16 08:49:47;;;;;;;23.27;10.32;;;;;;;8.66;100.00;101861.94;6277897;28;20349;-77
2023/04/16 08:52:51;;;;;;;20.52;10.48;;;;;;;8.71;100.00;101859.19;6278019;28;20052;-77
2023/04/16 08:55:59;;;;;;;22.48;10.27;;;;;;;8.78;100.00;101860.75;6275176;28;20095;-77
2023/04/16 08:59:04;;;;;;;24.03;9.20;;;;;;;8.80;100.00;101858.94;6270198;28;20063;-77
2023/04/16 09:02:06;;;;;;;20.83;9.90;;;;;;;8.82;100.00;101860.63;6271782;28;20303;-78
2023/04/16 09:05:09;;;;;;;18.92;9.68;;;;;;;8.78;100.00;101868.59;6264635;28;20049;-77
2023/04/16 09:08:10;;;;;;;19.48;9.43;;;;;;;8.83;100.00;101864.09;6276840;28;20456;-77
2023/04/16 09:11:17;;;;;;;19.80;8.95;;;;;;;8.88;100.00;101867.44;6268892;28;20369;-77
2023/04/16 09:14:19;;;;;;;19.25;10.07;;;;;;;8.90;100.00;101868.25;6277150;28;20353;-77
2023/04/16 09:17:20;;;;;;;19.10;10.15;;;;;;;8.96;100.00;101867.22;6277177;28;20045;-77
2023/04/16 09:20:22;;;;;;;20.25;9.60;;;;;;;8.97;100.00;101885.53;6278129;28;20060;-77
2023/04/16 09:23:23;;;;;;;26.30;10.40;;;;;;;8.97;100.00;101872.44;6276562;28;20047;-77
2023/04/16 09:26:27;;;;;;;18.77;9.75;;;;;;;9.02;100.00;101877.53;6276958;28;20330;-77
2023/04/16 09:29:36;;;;;;;18.42;8.57;;;;;;;9.07;100.00;101875.63;6276976;28;20056;-77
2023/04/16 09:32:37;;;;;;;21.02;9.38;;;;;;;9.11;100.00;101878.13;6277161;28;20056;-77
2023/04/16 09:35:45;;;;;;;24.38;10.02;;;;;;;9.06;100.00;101882.66;6270816;28;20357;-76
2023/04/16 09:38:47;;;;;;;20.63;10.00;;;;;;;9.09;100.00;101886.97;6265963;28;20064;-77
2023/04/16 09:41:53;;;;;;;23.33;8.52;;;;;;;9.09;100.00;101890.44;6272813;28;20079;-77
2023/04/16 09:44:55;;;;;;;29.05;10.65;;;;;;;9.07;100.00;101883.50;6268903;28;20050;-82
2023/04/16 09:48:04;;;;;;;22.45;9.50;;;;;;;9.12;100.00;101890.31;6270078;28;20095;-77
2023/04/16 09:51:06;;;;;;;17.97;8.63;;;;;;;9.13;100.00;101892.06;6277015;28;20053;-77
2023/04/16 09:54:08;;;;;;;22.13;10.63;;;;;;;9.13;100.00;101888.59;6271226;28;20041;-77
2023/04/16 09:57:11;;;;;;;26.48;10.88;;;;;;;9.19;100.00;101893.66;6267540;28;20049;-77
2023/04/16 10:00:18;;;;;;;19.33;9.90;;;;;;;9.29;100.00;101894.22;6270587;28;20095;-77
2023/04/16 10:03:29;;;;;;;20.25;9.48;;;;;;;9.34;100.00;101892.34;6275868;28;20056;-78
2023/04/16 10:06:30;;;;;;;22.45;9.52;;;;;;;9.37;100.00;101898.34;6265392;28;20053;-77
2023/04/16 10:09:33;;;;;;;17.92;8.70;;;;;;;9.38;100.00;101900.06;6276326;28;20053;-77
2023/04/16 10:12:35;;;;;;;22.42;9.25;;;;;;;9.44;100.00;101909.50;6263087;28;20126;-77
2023/04/16 10:15:37;;;;;;;21.27;9.32;;;;;;;9.49;100.00;101901.50;6267347;28;20448;-76
2023/04/16 10:18:40;;;;;;;20.27;9.48;;;;;;;9.53;100.00;101906.59;6265014;28;20048;-77
2023/04/16 10:21:42;;;;;;;19.08;9.98;;;;;;;9.58;100.00;101901.22;6273296;28;20056;-76
2023/04/16 10:24:45;;;;;;;19.40;8.75;;;;;;;9.66;100.00;101910.56;6273253;28;20048;-76
2023/04/16 10:27:48;;;;;;;16.48;8.85;;;;;;;9.77;100.00;101906.78;6275482;28;20045;-77
2023/04/16 10:30:52;;;;;;;20.92;8.50;;;;;;;9.86;100.00;101901.25;6270280;28;20052;-76
2023/04/16 10:33:54;;;;;;;17.58;8.35;;;;;;;10.01;100.00;101911.25;6266875;28;20053;-76
2023/04/16 10:36:56;;;;;;;22.65;9.88;;;;;;;10.04;100.00;101907.66;6273546;28;20045;-77
2023/04/16 10:39:58;;;;;;;18.90;9.23;;;;;;;10.09;100.00;101909.22;6275507;28;20057;-77
2023/04/16 10:43:01;;;;;;;22.58;9.93;;;;;;;10.27;100.00;101909.56;6275366;28;20068;-77
2023/04/16 10:46:18;;;;;;;21.25;9.27;;;;;;;10.44;100.00;101903.72;6275540;28;20049;-77
2023/04/16 10:49:23;;;;;;;23.17;10.75;;;;;;;10.61;100.00;101904.00;6275512;28;20049;-77
2023/04/16 10:52:25;;;;;;;20.08;10.00;;;;;;;10.79;100.00;101910.41;6275347;28;20045;-77
2023/04/16 10:55:26;;;;;;;27.95;12.55;;;;;;;11.03;100.00;101898.97;6275404;28;20045;-77
2023/04/16 10:58:30;;;;;;;18.08;7.88;;;;;;;11.24;100.00;101904.38;6274999;28;20369;-76
2023/04/16 11:01:33;;;;;;;21.00;9.93;;;;;;;11.31;100.00;101906.72;6275217;28;20059;-76
2023/04/16 11:04:36;;;;;;;19.42;9.27;;;;;;;11.33;100.00;101911.91;6275064;28;20048;-76
2023/04/16 11:07:47;;;;;;;18.42;9.20;;;;;;;11.20;100.00;101906.25;6274827;28;20044;-77
2023/04/16 11:10:49;;;;;;;24.42;9.98;;;;;;;11.01;100.00;101911.34;6275361;28;20049;-77
2023/04/16 11:13:55;;;;;;;20.48;9.32;;;;;;;10.84;100.00;101905.81;6274755;28;20060;-77
2023/04/16 11:16:57;;;;;;;21.85;8.80;;;;;;;10.74;100.00;101914.97;6274983;28;20052;-77
2023/04/16 11:19:58;;;;;;;23.35;9.05;;;;;;;10.70;100.00;101910.72;6274895;28;20049;-77
2023/04/16 11:22:59;;;;;;;26.77;9.27;;;;;;;10.66;100.00;101913.44;6274777;28;20052;-77
2023/04/16 11:26:01;;;;;;;18.65;9.45;;;;;;;10.64;100.00;101917.91;6275000;28;20056;-77
2023/04/16 11:29:13;;;;;;;25.48;10.82;;;;;;;10.58;100.00;101919.88;6274843;28;20049;-77
2023/04/16 11:32:21;;;;;;;20.83;9.60;;;;;;;10.59;100.00;101919.00;6276184;28;20059;-76
2023/04/16 11:35:23;;;;;;;22.30;10.88;;;;;;;10.55;100.00;101920.00;6279757;28;20045;-77
2023/04/16 11:38:33;;;;;;;22.33;10.55;;;;;;;10.55;100.00;101920.00;6279626;28;20457;-77
2023/04/16 11:41:34;;;;;;;22.70;10.30;;;;;;;10.55;100.00;101920.84;6280003;28;20469;-77
2023/04/16 11:44:37;;;;;;;20.17;9.80;;;;;;;10.61;100.00;101922.41;6279719;28;20433;-77
2023/04/16 11:47:46;;;;;;;20.63;9.57;;;;;;;10.59;100.00;101922.47;6279615;28;20056;-77
2023/04/16 11:50:55;;;;;;;18.33;8.90;;;;;;;10.62;100.00;101924.97;6279592;28;20049;-77
2023/04/16 11:53:57;;;;;;;;;;;;;;;10.66;100.00;101923.97;6279821;28;20079;-76
2023/04/16 11:56:59;;;;;;;17.52;8.07;;;;;;;10.72;100.00;101925.53;6279287;28;20013;-77
2023/04/16 12:00:05;;;;;;;16.05;8.50;;;;;;;10.82;100.00;101926.06;6279333;28;20360;-76
2023/04/16 12:03:06;;;;;;;19.88;8.52;;;;;;;10.89;100.00;101928.41;6278927;28;20357;-76
2023/04/16 12:06:08;;;;;;;18.48;8.55;;;;;;;10.95;100.00;101934.38;6278977;28;20056;-77
2023/04/16 12:09:23;;;;;;;15.93;8.07;;;;;;;10.84;100.00;101930.34;6278629;28;20135;-76
2023/04/16 12:12:29;;;;;;;19.15;8.85;;;;;;;10.84;100.00;101932.97;6272414;28;20468;-77
2023/04/16 12:15:45;;;;;;;14.43;7.43;;;;;;;10.84;100.00;101932.13;6278498;28;20048;-76
2023/04/16 12:19:00;;;;;;;18.23;7.25;;;;;;;10.82;100.00;101928.69;6278662;28;20126;-77
2023/04/16 12:22:01;;;;;;;15.98;8.15;;;;;;;10.90;100.00;101937.16;6278417;28;20091;-76
2023/04/16 12:25:04;;;;;;;17.90;7.38;;;;;;;10.99;100.00;101931.59;6278620;28;20045;-76
2023/04/16 12:28:05;;;;;;;15.82;8.10;;;;;;;11.08;100.00;101933.00;6278509;28;20052;-76
2023/04/16 12:31:09;;;;;;;21.08;8.48;;;;;;;11.16;100.00;101929.19;6278514;28;20326;-76
2023/04/16 12:34:11;;;;;;;14.05;7.57;;;;;;;11.26;100.00;101934.09;6278162;28;20052;-77
2023/04/16 12:37:13;;;;;;;16.23;8.02;;;;;;;11.33;100.00;101931.19;6278083;28;20468;-77
2023/04/16 12:40:15;;;;;;;17.13;8.55;;;;;;;11.35;100.00;101925.88;6278446;28;20349;-76
2023/04/16 12:43:16;;;;;;;19.92;9.85;;;;;;;11.43;100.00;101926.44;6277238;28;20056;-76
2023/04/16 12:46:19;;;;;;;21.70;8.90;;;;;;;11.54;100.00;101932.16;6278093;28;20049;-77
2023/04/16 12:49:21;;;;;;;17.17;8.85;;;;;;;11.64;100.00;101932.66;6277840;28;20057;-77
2023/04/16 12:52:22;;;;;;;21.20;9.82;;;;;;;11.72;100.00;101935.88;6278044;28;20075;-77
2023/04/16 12:55:24;;;;;;;16.70;8.30;;;;;;;11.76;100.00;101934.81;6277828;28;20053;-77
2023/04/16 12:58:25;;;;;;;20.45;8.60;;;;;;;11.78;100.00;101934.75;6278004;28;20559;-77
2023/04/16 13:01:28;;;;;;;37.83;14.07;;;;;;;11.90;100.00;101932.53;6277649;28;20044;-76
2023/04/16 13:04:30;;;;;;;19.73;8.75;;;;;;;11.91;100.00;101938.66;6277727;28;20048;-76
2023/04/16 13:07:32;;;;;;;23.30;9.13;;;;;;;11.90;100.00;101936.97;6277306;28;20049;-77
2023/04/16 13:10:34;;;;;;;17.90;9.52;;;;;;;11.93;100.00;101942.09;6277587;28;20055;-77
2023/04/16 13:13:36;;;;;;;20.52;8.88;;;;;;;11.95;100.00;101931.50;6277660;28;20045;-77
2023/04/16 13:16:39;;;;;;;17.65;8.18;;;;;;;12.03;100.00;101934.66;6277063;28;20357;-77
2023/04/16 13:19:40;;;;;;;22.13;9.80;;;;;;;12.07;100.00;101938.88;6277414;28;20041;-78
2023/04/16 13:22:42;;;;;;;19.85;8.55;;;;;;;12.07;100.00;101933.63;6276432;28;20048;-76
2023/04/16 13:25:43;;;;;;;22.20;9.32;;;;;;;12.04;100.00;101941.66;6267283;28;20056;-77
2023/04/16 13:28:45;;;;;;;17.27;8.80;;;;;;;12.05;100.00;101944.22;6269657;28;20083;-76
2023/04/16 13:31:48;;;;;;;17.90;8.35;;;;;;;11.98;100.00;101945.38;6277022;28;20361;-77
2023/04/16 13:34:49;;;;;;;24.42;9.38;;;;;;;12.03;100.00;101945.19;6274108;28;20452;-77
2023/04/16 13:37:51;;;;;;;18.48;8.90;;;;;;;11.96;100.00;101949.88;6276960;28;20045;-78
2023/04/16 13:40:52;;;;;;;20.10;9.32;;;;;;;11.87;100.00;101945.81;6271162;28;20072;-76
2023/04/16 13:43:54;;;;;;;14.27;8.25;;;;;;;11.80;100.00;101940.81;6273204;28;20345;-77
2023/04/16 13:46:57;;;;;;;17.45;8.20;;;;;;;11.80;100.00;101943.44;6267437;28;20091;-77
2023/04/16 13:49:58;;;;;;;19.23;9.32;;;;;;;11.81;100.00;101932.88;6276480;28;20052;-76